sensor_id;sensor_type;location;lat;lon;timestamp;pressure;altitude;pressure_sealevel;temperature;humidity
59391;BME280;53405;57.012;40.984;2023-04-01T00:00:24;98839.59;;;2.58;93.71
59391;BME280;53405;57.012;40.984;2023-04-01T00:02:52;98834.69;;;2.55;93.75
59391;BME280;53405;57.012;40.984;2023-04-01T00:05:19;98834.69;;;2.55;92.93
59391;BME280;53405;57.012;40.984;2023-04-01T00:07:46;98836.28;;;2.47;93.25
59391;BME280;53405;57.012;40.984;2023-04-01T00:10:14;98837.91;;;2.48;92.30
59391;BME280;53405;57.012;40.984;2023-04-01T00:12:42;98832.72;;;2.48;91.81
59391;BME280;53405;57.012;40.984;2023-04-01T00:15:11;98838.25;;;2.53;92.61
59391;BME280;53405;57.012;40.984;2023-04-01T00:17:38;98833.22;;;2.52;92.92
59391;BME280;53405;57.012;40.984;2023-04-01T00:20:06;98832.47;;;2.33;93.05
59391;BME280;53405;57.012;40.984;2023-04-01T00:22:35;98820.59;;;2.31;92.61
59391;BME280;53405;57.012;40.984;2023-04-01T00:25:03;98851.44;;;2.26;93.24
59391;BME280;53405;57.012;40.984;2023-04-01T00:27:31;98835.00;;;2.25;93.95
59391;BME280;53405;57.012;40.984;2023-04-01T00:29:59;98810.81;;;2.25;94.02
59391;BME280;53405;57.012;40.984;2023-04-01T00:32:26;98840.00;;;2.45;93.39
59391;BME280;53405;57.012;40.984;2023-04-01T00:34:54;98824.28;;;2.46;93.06
59391;BME280;53405;57.012;40.984;2023-04-01T00:37:21;98828.84;;;2.52;92.65
59391;BME280;53405;57.012;40.984;2023-04-01T00:39:49;98824.03;;;2.40;92.01
59391;BME280;53405;57.012;40.984;2023-04-01T00:42:17;98824.88;;;2.40;92.76
59391;BME280;53405;57.012;40.984;2023-04-01T00:44:50;98832.81;;;2.39;93.37
59391;BME280;53405;57.012;40.984;2023-04-01T00:47:18;98832.38;;;2.43;93.17
59391;BME280;53405;57.012;40.984;2023-04-01T00:49:48;98837.88;;;2.40;93.22
59391;BME280;53405;57.012;40.984;2023-04-01T00:52:19;98836.09;;;2.41;92.69
59391;BME280;53405;57.012;40.984;2023-04-01T00:54:54;98835.06;;;2.33;93.53
59391;BME280;53405;57.012;40.984;2023-04-01T00:57:33;98813.16;;;2.36;93.08
59391;BME280;53405;57.012;40.984;2023-04-01T01:00:06;98838.47;;;2.34;93.73
59391;BME280;53405;57.012;40.984;2023-04-01T01:02:37;98836.56;;;2.44;92.65
59391;BME280;53405;57.012;40.984;2023-04-01T01:05:05;98835.31;;;2.48;93.07
59391;BME280;53405;57.012;40.984;2023-04-01T01:07:47;98838.97;;;2.38;93.04
59391;BME280;53405;57.012;40.984;2023-04-01T01:10:39;98834.81;;;2.45;92.67
59391;BME280;53405;57.012;40.984;2023-04-01T01:13:17;98842.47;;;2.46;92.48
59391;BME280;53405;57.012;40.984;2023-04-01T01:15:58;98827.63;;;2.39;92.08
59391;BME280;53405;57.012;40.984;2023-04-01T01:18:48;98844.63;;;2.33;92.33
59391;BME280;53405;57.012;40.984;2023-04-01T01:37:57;98849.66;;;2.52;92.50
59391;BME280;53405;57.012;40.984;2023-04-01T01:40:26;98845.06;;;2.46;91.11
59391;BME280;53405;57.012;40.984;2023-04-01T01:42:58;98842.03;;;2.33;92.04
59391;BME280;53405;57.012;40.984;2023-04-01T01:45:28;98835.06;;;2.33;91.78
59391;BME280;53405;57.012;40.984;2023-04-01T01:47:56;98839.25;;;2.52;91.24
59391;BME280;53405;57.012;40.984;2023-04-01T01:50:26;98807.97;;;2.10;92.04
59391;BME280;53405;57.012;40.984;2023-04-01T01:53:06;98845.31;;;2.35;91.67
59391;BME280;53405;57.012;40.984;2023-04-01T01:55:40;98845.09;;;2.28;91.29
59391;BME280;53405;57.012;40.984;2023-04-01T02:01:16;98842.16;;;2.23;90.57
59391;BME280;53405;57.012;40.984;2023-04-01T02:03:44;98846.16;;;2.17;91.47
59391;BME280;53405;57.012;40.984;2023-04-01T02:06:16;98842.66;;;2.27;90.94
59391;BME280;53405;57.012;40.984;2023-04-01T02:08:57;98844.78;;;2.31;91.04
59391;BME280;53405;57.012;40.984;2023-04-01T02:14:13;98848.09;;;2.15;90.99
59391;BME280;53405;57.012;40.984;2023-04-01T02:16:51;98856.31;;;2.29;92.07
59391;BME280;53405;57.012;40.984;2023-04-01T02:19:25;98851.81;;;2.39;91.18
59391;BME280;53405;57.012;40.984;2023-04-01T02:21:57;98855.75;;;2.43;90.38
59391;BME280;53405;57.012;40.984;2023-04-01T02:24:28;98851.47;;;2.34;89.60
59391;BME280;53405;57.012;40.984;2023-04-01T02:26:57;98856.16;;;2.30;90.41
59391;BME280;53405;57.012;40.984;2023-04-01T02:29:26;98850.97;;;2.30;90.18
59391;BME280;53405;57.012;40.984;2023-04-01T02:31:54;98860.47;;;2.22;90.49
59391;BME280;53405;57.012;40.984;2023-04-01T02:34:23;98840.66;;;2.21;90.44
59391;BME280;53405;57.012;40.984;2023-04-01T02:36:51;98847.34;;;2.23;89.32
59391;BME280;53405;57.012;40.984;2023-04-01T02:39:20;98837.84;;;2.14;89.70
59391;BME280;53405;57.012;40.984;2023-04-01T02:41:47;98851.16;;;2.11;90.38
59391;BME280;53405;57.012;40.984;2023-04-01T02:44:15;98813.69;;;1.95;91.18
59391;BME280;53405;57.012;40.984;2023-04-01T02:46:43;98845.53;;;2.24;91.57
59391;BME280;53405;57.012;40.984;2023-04-01T02:49:10;98837.59;;;2.25;90.44
59391;BME280;53405;57.012;40.984;2023-04-01T02:51:38;98840.56;;;2.30;90.89
59391;BME280;53405;57.012;40.984;2023-04-01T02:54:07;98819.25;;;2.27;90.18
59391;BME280;53405;57.012;40.984;2023-04-01T02:56:34;98845.94;;;2.29;89.96
59391;BME280;53405;57.012;40.984;2023-04-01T02:59:02;98844.91;;;2.22;90.42
59391;BME280;53405;57.012;40.984;2023-04-01T03:01:30;98847.94;;;2.17;90.19
59391;BME280;53405;57.012;40.984;2023-04-01T03:03:57;98847.50;;;2.22;90.32
59391;BME280;53405;57.012;40.984;2023-04-01T03:06:24;98847.53;;;2.04;90.25
59391;BME280;53405;57.012;40.984;2023-04-01T03:08:51;98851.69;;;2.14;89.40
59391;BME280;53405;57.012;40.984;2023-04-01T03:11:19;98852.72;;;2.04;90.38
59391;BME280;53405;57.012;40.984;2023-04-01T03:13:47;98857.81;;;2.13;90.13
59391;BME280;53405;57.012;40.984;2023-04-01T03:16:14;98847.53;;;2.04;90.08
59391;BME280;53405;57.012;40.984;2023-04-01T03:18:42;98857.31;;;2.10;90.15
59391;BME280;53405;57.012;40.984;2023-04-01T03:23:41;98844.34;;;2.10;89.00
59391;BME280;53405;57.012;40.984;2023-04-01T03:26:09;98863.38;;;2.19;88.75
59391;BME280;53405;57.012;40.984;2023-04-01T03:28:36;98849.69;;;2.08;89.81
59391;BME280;53405;57.012;40.984;2023-04-01T03:31:03;98859.22;;;2.08;90.06
59391;BME280;53405;57.012;40.984;2023-04-01T03:33:39;98837.00;;;2.05;88.93
59391;BME280;53405;57.012;40.984;2023-04-01T03:36:07;98846.84;;;2.02;90.24
59391;BME280;53405;57.012;40.984;2023-04-01T03:38:35;98864.88;;;2.21;90.77
59391;BME280;53405;57.012;40.984;2023-04-01T03:41:02;98860.28;;;2.15;89.76
59391;BME280;53405;57.012;40.984;2023-04-01T03:43:32;98866.78;;;2.19;90.05
59391;BME280;53405;57.012;40.984;2023-04-01T03:45:59;98857.03;;;2.13;89.28
59391;BME280;53405;57.012;40.984;2023-04-01T03:48:27;98849.16;;;2.05;89.40
59391;BME280;53405;57.012;40.984;2023-04-01T03:50:54;98869.03;;;2.14;89.35
59391;BME280;53405;57.012;40.984;2023-04-01T03:53:22;98877.88;;;2.03;89.79
59391;BME280;53405;57.012;40.984;2023-04-01T03:55:51;98880.75;;;2.18;89.75
59391;BME280;53405;57.012;40.984;2023-04-01T03:58:18;98881.56;;;2.19;90.38
59391;BME280;53405;57.012;40.984;2023-04-01T04:00:45;98880.22;;;2.32;90.38
59391;BME280;53405;57.012;40.984;2023-04-01T04:03:13;98882.19;;;2.39;90.50
59391;BME280;53405;57.012;40.984;2023-04-01T04:05:50;98868.03;;;2.33;88.80
59391;BME280;53405;57.012;40.984;2023-04-01T04:08:17;98869.16;;;2.30;89.08
59391;BME280;53405;57.012;40.984;2023-04-01T04:10:45;98876.66;;;2.33;89.98
59391;BME280;53405;57.012;40.984;2023-04-01T04:13:13;98863.38;;;2.19;89.94
59391;BME280;53405;57.012;40.984;2023-04-01T04:15:48;98872.56;;;2.31;90.63
59391;BME280;53405;57.012;40.984;2023-04-01T04:18:15;98880.59;;;2.46;90.38
59391;BME280;53405;57.012;40.984;2023-04-01T04:20:46;98870.91;;;2.48;89.40
59391;BME280;53405;57.012;40.984;2023-04-01T04:23:15;98872.16;;;2.44;89.68
59391;BME280;53405;57.012;40.984;2023-04-01T04:25:59;98872.09;;;2.35;88.72
59391;BME280;53405;57.012;40.984;2023-04-01T04:28:28;98869.00;;;2.32;89.58
59391;BME280;53405;57.012;40.984;2023-04-01T04:30:57;98875.16;;;2.31;89.38
59391;BME280;53405;57.012;40.984;2023-04-01T04:33:26;98856.81;;;2.32;89.22
59391;BME280;53405;57.012;40.984;2023-04-01T04:35:58;98876.84;;;2.40;88.82
59391;BME280;53405;57.012;40.984;2023-04-01T04:38:26;98878.72;;;2.30;88.63
59391;BME280;53405;57.012;40.984;2023-04-01T04:40:53;98882.50;;;2.35;88.78
59391;BME280;53405;57.012;40.984;2023-04-01T04:43:21;98878.72;;;2.30;89.18
59391;BME280;53405;57.012;40.984;2023-04-01T04:45:50;98884.34;;;2.43;89.54
59391;BME280;53405;57.012;40.984;2023-04-01T04:48:18;98874.91;;;2.42;90.44
59391;BME280;53405;57.012;40.984;2023-04-01T04:50:49;98862.38;;;2.38;90.38
59391;BME280;53405;57.012;40.984;2023-04-01T04:53:19;98886.53;;;2.56;89.29
59391;BME280;53405;57.012;40.984;2023-04-01T04:55:49;98888.38;;;2.64;88.98
59391;BME280;53405;57.012;40.984;2023-04-01T04:58:42;98892.44;;;2.66;89.69
59391;BME280;53405;57.012;40.984;2023-04-01T05:01:16;98887.06;;;2.68;88.15
59391;BME280;53405;57.012;40.984;2023-04-01T05:03:44;98870.91;;;2.48;87.67
59391;BME280;53405;57.012;40.984;2023-04-01T05:06:13;98891.44;;;2.59;88.56
59391;BME280;53405;57.012;40.984;2023-04-01T05:08:43;98894.03;;;2.59;88.01
59391;BME280;53405;57.012;40.984;2023-04-01T05:11:16;98890.97;;;2.64;90.10
59391;BME280;53405;57.012;40.984;2023-04-01T05:13:44;98895.44;;;2.53;89.93
59391;BME280;53405;57.012;40.984;2023-04-01T05:16:16;98896.78;;;2.58;88.85
59391;BME280;53405;57.012;40.984;2023-04-01T05:18:44;98893.09;;;2.68;89.39
59391;BME280;53405;57.012;40.984;2023-04-01T05:21:12;98897.13;;;2.63;90.46
59391;BME280;53405;57.012;40.984;2023-04-01T05:23:40;98893.78;;;2.79;89.75
59391;BME280;53405;57.012;40.984;2023-04-01T05:26:11;98901.47;;;2.88;89.29
59391;BME280;53405;57.012;40.984;2023-04-01T05:28:42;98899.13;;;2.69;89.67
59391;BME280;53405;57.012;40.984;2023-04-01T05:31:10;98830.19;;;2.30;89.03
59391;BME280;53405;57.012;40.984;2023-04-01T05:33:39;98900.16;;;2.76;88.71
59391;BME280;53405;57.012;40.984;2023-04-01T05:36:10;98898.03;;;2.80;86.51
59391;BME280;53405;57.012;40.984;2023-04-01T05:38:40;98889.63;;;2.86;86.49
59391;BME280;53405;57.012;40.984;2023-04-01T05:41:11;98890.19;;;2.71;85.21
59391;BME280;53405;57.012;40.984;2023-04-01T05:43:43;98886.72;;;2.63;87.16
59391;BME280;53405;57.012;40.984;2023-04-01T05:46:29;98889.13;;;2.82;87.60
59391;BME280;53405;57.012;40.984;2023-04-01T05:49:08;98851.28;;;2.96;86.93
59391;BME280;53405;57.012;40.984;2023-04-01T05:51:38;98881.59;;;3.14;85.41
59391;BME280;53405;57.012;40.984;2023-04-01T05:54:06;98871.53;;;3.11;86.84
59391;BME280;53405;57.012;40.984;2023-04-01T05:56:33;98881.59;;;3.14;85.34
59391;BME280;53405;57.012;40.984;2023-04-01T05:59:01;98859.97;;;3.05;85.34
59391;BME280;53405;57.012;40.984;2023-04-01T06:01:28;98878.59;;;3.35;84.67
59391;BME280;53405;57.012;40.984;2023-04-01T06:03:56;98895.56;;;3.55;85.47
59391;BME280;53405;57.012;40.984;2023-04-01T06:06:27;98863.38;;;3.56;85.76
59391;BME280;53405;57.012;40.984;2023-04-01T06:09:21;98889.78;;;3.94;83.74
59391;BME280;53405;57.012;40.984;2023-04-01T06:15:09;98894.81;;;4.12;79.46
59391;BME280;53405;57.012;40.984;2023-04-01T06:18:01;98897.41;;;4.04;80.10
59391;BME280;53405;57.012;40.984;2023-04-01T06:23:23;98892.34;;;3.86;81.15
59391;BME280;53405;57.012;40.984;2023-04-01T06:26:24;98888.44;;;3.82;81.57
59391;BME280;53405;57.012;40.984;2023-04-01T06:35:22;98893.81;;;3.72;84.43
59391;BME280;53405;57.012;40.984;2023-04-01T06:41:04;98895.41;;;3.65;82.86
59391;BME280;53405;57.012;40.984;2023-04-01T06:43:43;98906.53;;;3.84;81.32
59391;BME280;53405;57.012;40.984;2023-04-01T06:52:54;98900.97;;;4.44;78.88
59391;BME280;53405;57.012;40.984;2023-04-01T06:55:48;98899.81;;;4.72;79.02
59391;BME280;53405;57.012;40.984;2023-04-01T06:58:57;98903.84;;;4.82;77.12
59391;BME280;53405;57.012;40.984;2023-04-01T07:01:35;98915.53;;;4.95;77.12
59391;BME280;53405;57.012;40.984;2023-04-01T07:04:20;98910.03;;;4.89;77.07
59391;BME280;53405;57.012;40.984;2023-04-01T07:06:56;98922.84;;;5.07;77.32
59391;BME280;53405;57.012;40.984;2023-04-01T07:09:39;98925.09;;;5.19;76.31
59391;BME280;53405;57.012;40.984;2023-04-01T07:15:42;98936.06;;;5.06;76.32
59391;BME280;53405;57.012;40.984;2023-04-01T07:18:19;98938.56;;;4.91;73.95
59391;BME280;53405;57.012;40.984;2023-04-01T07:20:49;98942.50;;;4.70;73.45
59391;BME280;53405;57.012;40.984;2023-04-01T07:23:23;98944.47;;;4.68;74.10
59391;BME280;53405;57.012;40.984;2023-04-01T07:26:20;98931.88;;;4.80;74.40
59391;BME280;53405;57.012;40.984;2023-04-01T07:28:53;98923.25;;;4.80;75.15
59391;BME280;53405;57.012;40.984;2023-04-01T07:34:28;98883.56;;;5.01;73.38
59391;BME280;53405;57.012;40.984;2023-04-01T07:37:15;98956.34;;;5.35;73.87
59391;BME280;53405;57.012;40.984;2023-04-01T07:45:43;98953.88;;;5.50;69.75
59391;BME280;53405;57.012;40.984;2023-04-01T07:56:30;98971.09;;;5.59;72.79
59391;BME280;53405;57.012;40.984;2023-04-01T08:04:58;98964.41;;;5.96;71.92
59391;BME280;53405;57.012;40.984;2023-04-01T08:10:51;98982.50;;;6.29;69.59
59391;BME280;53405;57.012;40.984;2023-04-01T08:14:43;98929.28;;;5.91;67.58
59391;BME280;53405;57.012;40.984;2023-04-01T08:17:43;98983.81;;;5.94;68.33
59391;BME280;53405;57.012;40.984;2023-04-01T08:20:44;98990.50;;;5.65;69.60
59391;BME280;53405;57.012;40.984;2023-04-01T08:23:19;98997.03;;;5.61;71.98
59391;BME280;53405;57.012;40.984;2023-04-01T08:26:12;99001.88;;;5.41;70.40
59391;BME280;53405;57.012;40.984;2023-04-01T08:31:37;99006.53;;;5.14;69.95
59391;BME280;53405;57.012;40.984;2023-04-01T08:34:16;98995.63;;;4.94;73.15
59391;BME280;53405;57.012;40.984;2023-04-01T08:36:51;99013.41;;;4.99;71.71
59391;BME280;53405;57.012;40.984;2023-04-01T08:45:17;99022.28;;;5.29;72.14
59391;BME280;53405;57.012;40.984;2023-04-01T08:57:00;99022.94;;;5.39;72.50
59391;BME280;53405;57.012;40.984;2023-04-01T09:00:04;99032.72;;;5.46;71.70
59391;BME280;53405;57.012;40.984;2023-04-01T09:19:50;99053.25;;;5.57;69.19
59391;BME280;53405;57.012;40.984;2023-04-01T09:22:50;99052.91;;;5.52;71.44
59391;BME280;53405;57.012;40.984;2023-04-01T09:25:29;99036.28;;;5.45;72.75
59391;BME280;53405;57.012;40.984;2023-04-01T09:28:20;99067.63;;;5.45;69.62
59391;BME280;53405;57.012;40.984;2023-04-01T09:37:17;99066.50;;;5.31;72.50
59391;BME280;53405;57.012;40.984;2023-04-01T09:48:31;99082.16;;;5.39;73.01
59391;BME280;53405;57.012;40.984;2023-04-01T09:54:17;99093.88;;;5.51;69.94
59391;BME280;53405;57.012;40.984;2023-04-01T10:23:18;99115.78;;;5.09;71.48
59391;BME280;53405;57.012;40.984;2023-04-01T10:31:45;99128.72;;;5.19;71.64
59391;BME280;53405;57.012;40.984;2023-04-01T10:48:21;99151.88;;;5.30;71.06
59391;BME280;53405;57.012;40.984;2023-04-01T10:51:04;99152.16;;;5.43;71.79
59391;BME280;53405;57.012;40.984;2023-04-01T10:57:22;99153.66;;;5.38;70.97
59391;BME280;53405;57.012;40.984;2023-04-01T11:03:45;99165.34;;;5.67;72.15
59391;BME280;53405;57.012;40.984;2023-04-01T11:21:55;99192.97;;;5.45;72.48
59391;BME280;53405;57.012;40.984;2023-04-01T11:25:05;99195.75;;;5.43;73.01
59391;BME280;53405;57.012;40.984;2023-04-01T11:27:59;99191.16;;;5.61;71.76
59391;BME280;53405;57.012;40.984;2023-04-01T11:31:00;99197.38;;;5.44;71.48
59391;BME280;53405;57.012;40.984;2023-04-01T11:33:44;99189.22;;;5.47;71.56
59391;BME280;53405;57.012;40.984;2023-04-01T11:36:37;99187.25;;;5.57;73.15
59391;BME280;53405;57.012;40.984;2023-04-01T11:39:24;99199.16;;;5.43;70.74
59391;BME280;53405;57.012;40.984;2023-04-01T11:48:24;99194.13;;;5.25;74.09
59391;BME280;53405;57.012;40.984;2023-04-01T12:09:04;99231.50;;;5.42;74.49
59391;BME280;53405;57.012;40.984;2023-04-01T12:11:45;99239.31;;;5.26;73.86
59391;BME280;53405;57.012;40.984;2023-04-01T12:28:59;99245.66;;;5.15;77.84
59391;BME280;53405;57.012;40.984;2023-04-01T12:34:28;99254.97;;;5.10;74.81
59391;BME280;53405;57.012;40.984;2023-04-01T12:37:29;99252.66;;;4.98;76.21
59391;BME280;53405;57.012;40.984;2023-04-01T12:43:49;99260.44;;;4.90;76.22
59391;BME280;53405;57.012;40.984;2023-04-01T12:46:25;99273.16;;;4.93;75.98
59391;BME280;53405;57.012;40.984;2023-04-01T13:08:43;99306.00;;;4.35;77.48
59391;BME280;53405;57.012;40.984;2023-04-01T13:11:22;99293.63;;;4.29;77.96
59391;BME280;53405;57.012;40.984;2023-04-01T13:19:39;99289.06;;;4.31;79.27
59391;BME280;53405;57.012;40.984;2023-04-01T13:25:43;99313.00;;;4.61;78.41
59391;BME280;53405;57.012;40.984;2023-04-01T13:28:18;99294.31;;;4.39;76.77
59391;BME280;53405;57.012;40.984;2023-04-01T13:33:30;99306.59;;;4.55;76.21
59391;BME280;53405;57.012;40.984;2023-04-01T13:44:44;99339.50;;;4.82;75.38
59391;BME280;53405;57.012;40.984;2023-04-01T14:01:23;99358.66;;;4.99;76.80
59391;BME280;53405;57.012;40.984;2023-04-01T14:07:09;99361.69;;;4.86;76.37
59391;BME280;53405;57.012;40.984;2023-04-01T14:09:58;99365.66;;;4.91;75.45
59391;BME280;53405;57.012;40.984;2023-04-01T14:12:38;99369.63;;;4.68;77.14
59391;BME280;53405;57.012;40.984;2023-04-01T14:18:01;99368.59;;;4.61;78.50
59391;BME280;53405;57.012;40.984;2023-04-01T14:29:18;99359.66;;;4.64;78.84
59391;BME280;53405;57.012;40.984;2023-04-01T14:32:00;99363.41;;;4.69;77.50
59391;BME280;53405;57.012;40.984;2023-04-01T14:40:50;99399.34;;;4.84;79.83
59391;BME280;53405;57.012;40.984;2023-04-01T14:49:47;99405.97;;;4.70;80.04
59391;BME280;53405;57.012;40.984;2023-04-01T14:52:25;99414.66;;;4.79;79.24
59391;BME280;53405;57.012;40.984;2023-04-01T14:54:56;99427.81;;;4.95;79.17
59391;BME280;53405;57.012;40.984;2023-04-01T14:57:28;99433.91;;;4.78;77.40
59391;BME280;53405;57.012;40.984;2023-04-01T15:00:15;99432.19;;;4.95;78.70
59391;BME280;53405;57.012;40.984;2023-04-01T15:03:01;99446.00;;;5.13;76.58
59391;BME280;53405;57.012;40.984;2023-04-01T15:05:49;99423.06;;;4.64;78.24
59391;BME280;53405;57.012;40.984;2023-04-01T15:08:22;99447.59;;;4.80;79.46
59391;BME280;53405;57.012;40.984;2023-04-01T15:21:44;99453.78;;;4.79;78.55
59391;BME280;53405;57.012;40.984;2023-04-01T15:24:22;99467.13;;;4.76;79.63
59391;BME280;53405;57.012;40.984;2023-04-01T15:27:15;99466.72;;;4.88;78.29
59391;BME280;53405;57.012;40.984;2023-04-01T15:32:59;99454.34;;;4.64;78.64
59391;BME280;53405;57.012;40.984;2023-04-01T15:35:59;99477.22;;;4.70;78.86
59391;BME280;53405;57.012;40.984;2023-04-01T15:38:57;99475.81;;;4.76;76.92
59391;BME280;53405;57.012;40.984;2023-04-01T15:46:58;99491.22;;;4.69;79.90
59391;BME280;53405;57.012;40.984;2023-04-01T15:57:47;99500.53;;;4.72;78.49
59391;BME280;53405;57.012;40.984;2023-04-01T16:00:28;99514.34;;;4.64;77.96
59391;BME280;53405;57.012;40.984;2023-04-01T16:22:22;99522.97;;;4.65;79.79
59391;BME280;53405;57.012;40.984;2023-04-01T16:30:32;99520.38;;;4.65;78.99
59391;BME280;53405;57.012;40.984;2023-04-01T16:33:21;99529.94;;;4.56;79.51
59391;BME280;53405;57.012;40.984;2023-04-01T16:43:50;99535.94;;;4.57;80.10
59391;BME280;53405;57.012;40.984;2023-04-01T16:46:29;99538.41;;;4.76;79.80
59391;BME280;53405;57.012;40.984;2023-04-01T16:54:57;99537.72;;;4.74;79.80
59391;BME280;53405;57.012;40.984;2023-04-01T17:03:13;99543.00;;;4.82;78.79
59391;BME280;53405;57.012;40.984;2023-04-01T17:08:36;99553.81;;;4.69;79.76
59391;BME280;53405;57.012;40.984;2023-04-01T17:13:53;99552.50;;;4.65;79.58
59391;BME280;53405;57.012;40.984;2023-04-01T17:19:46;99550.25;;;4.70;80.52
59391;BME280;53405;57.012;40.984;2023-04-01T17:22:33;99559.63;;;4.81;80.68
59391;BME280;53405;57.012;40.984;2023-04-01T17:30:30;99554.88;;;4.77;79.17
59391;BME280;53405;57.012;40.984;2023-04-01T17:44:38;99574.13;;;4.58;79.89
59391;BME280;53405;57.012;40.984;2023-04-01T17:47:27;99573.19;;;4.49;80.78
59391;BME280;53405;57.012;40.984;2023-04-01T17:52:42;99577.81;;;4.55;81.05
59391;BME280;53405;57.012;40.984;2023-04-01T18:17:42;99573.41;;;4.20;81.96
59391;BME280;53405;57.012;40.984;2023-04-01T18:20:37;99590.88;;;4.37;82.28
59391;BME280;53405;57.012;40.984;2023-04-01T18:23:45;99586.53;;;4.28;82.92
59391;BME280;53405;57.012;40.984;2023-04-01T18:26:34;99590.25;;;4.25;83.79
59391;BME280;53405;57.012;40.984;2023-04-01T18:31:52;99590.31;;;4.15;81.92
59391;BME280;53405;57.012;40.984;2023-04-01T18:37:18;99593.44;;;4.19;83.13
59391;BME280;53405;57.012;40.984;2023-04-01T18:39:53;99579.81;;;4.25;82.24
59391;BME280;53405;57.012;40.984;2023-04-01T18:45:32;99597.13;;;4.44;83.30
59391;BME280;53405;57.012;40.984;2023-04-01T18:50:43;99590.81;;;4.19;83.26
59391;BME280;53405;57.012;40.984;2023-04-01T18:53:24;99583.78;;;4.29;82.77
59391;BME280;53405;57.012;40.984;2023-04-01T18:56:02;99591.00;;;4.36;82.32
59391;BME280;53405;57.012;40.984;2023-04-01T18:58:51;99588.84;;;4.31;81.86
59391;BME280;53405;57.012;40.984;2023-04-01T19:06:44;99593.31;;;4.39;83.06
59391;BME280;53405;57.012;40.984;2023-04-01T19:09:26;99585.03;;;4.25;82.86
59391;BME280;53405;57.012;40.984;2023-04-01T19:12:11;99586.09;;;4.32;83.65
59391;BME280;53405;57.012;40.984;2023-04-01T19:19:58;99580.44;;;4.37;82.04
59391;BME280;53405;57.012;40.984;2023-04-01T19:27:53;99570.97;;;4.18;81.85
59391;BME280;53405;57.012;40.984;2023-04-01T19:30:42;99576.38;;;4.07;82.64
59391;BME280;53405;57.012;40.984;2023-04-01T19:33:45;99583.69;;;3.93;83.41
59391;BME280;53405;57.012;40.984;2023-04-01T19:50:49;99577.69;;;3.93;84.45
59391;BME280;53405;57.012;40.984;2023-04-01T19:53:27;99575.50;;;3.88;84.82
59391;BME280;53405;57.012;40.984;2023-04-01T19:58:32;99576.84;;;3.92;84.93
59391;BME280;53405;57.012;40.984;2023-04-01T20:01:04;99580.16;;;3.85;85.75
59391;BME280;53405;57.012;40.984;2023-04-01T20:06:33;99578.91;;;3.89;85.22
59391;BME280;53405;57.012;40.984;2023-04-01T20:15:18;99584.72;;;3.83;86.01
59391;BME280;53405;57.012;40.984;2023-04-01T20:27:48;99584.81;;;3.91;87.97
59391;BME280;53405;57.012;40.984;2023-04-01T20:36:21;99589.94;;;4.10;86.10
59391;BME280;53405;57.012;40.984;2023-04-01T20:39:43;99594.44;;;4.08;85.99
59391;BME280;53405;57.012;40.984;2023-04-01T20:44:37;99575.44;;;3.98;86.28
59391;BME280;53405;57.012;40.984;2023-04-01T20:47:41;99584.44;;;4.13;86.79
59391;BME280;53405;57.012;40.984;2023-04-01T20:53:35;99586.81;;;4.07;86.30
59391;BME280;53405;57.012;40.984;2023-04-01T21:03:54;99588.84;;;4.03;87.11
59391;BME280;53405;57.012;40.984;2023-04-01T21:07:04;99588.94;;;4.11;87.57
59391;BME280;53405;57.012;40.984;2023-04-01T21:10:11;99589.09;;;4.10;87.83
59391;BME280;53405;57.012;40.984;2023-04-01T21:12:52;99593.84;;;4.24;86.95
59391;BME280;53405;57.012;40.984;2023-04-01T21:30:01;99618.41;;;4.22;86.45
59391;BME280;53405;57.012;40.984;2023-04-01T21:32:57;99617.28;;;4.24;86.65
59391;BME280;53405;57.012;40.984;2023-04-01T22:02:45;99629.31;;;4.53;86.79
59391;BME280;53405;57.012;40.984;2023-04-01T22:05:25;99629.75;;;4.48;86.71
59391;BME280;53405;57.012;40.984;2023-04-01T22:10:56;99631.25;;;4.51;87.53
59391;BME280;53405;57.012;40.984;2023-04-01T22:13:38;99598.47;;;4.30;87.25
59391;BME280;53405;57.012;40.984;2023-04-01T22:21:44;99629.75;;;4.48;88.06
59391;BME280;53405;57.012;40.984;2023-04-01T22:30:27;99640.13;;;4.58;89.28
59391;BME280;53405;57.012;40.984;2023-04-01T22:32:48;99643.53;;;4.59;88.92
59391;BME280;53405;57.012;40.984;2023-04-01T22:40:33;99639.03;;;4.79;89.41
59391;BME280;53405;57.012;40.984;2023-04-01T22:43:10;99620.22;;;4.57;90.08
59391;BME280;53405;57.012;40.984;2023-04-01T22:45:52;99641.47;;;4.80;90.09
59391;BME280;53405;57.012;40.984;2023-04-01T22:48:49;99634.25;;;4.74;89.40
59391;BME280;53405;57.012;40.984;2023-04-01T22:57:11;99647.22;;;4.66;90.85
59391;BME280;53405;57.012;40.984;2023-04-01T23:02:21;99658.78;;;4.81;90.62
59391;BME280;53405;57.012;40.984;2023-04-01T23:05:00;99648.56;;;4.70;90.51
59391;BME280;53405;57.012;40.984;2023-04-01T23:10:39;99661.16;;;4.93;90.04
59391;BME280;53405;57.012;40.984;2023-04-01T23:13:15;99659.97;;;4.87;89.93
59391;BME280;53405;57.012;40.984;2023-04-01T23:15:44;99659.16;;;4.86;89.98
59391;BME280;53405;57.012;40.984;2023-04-01T23:18:25;99667.94;;;4.85;89.08
59391;BME280;53405;57.012;40.984;2023-04-01T23:23:53;99654.00;;;4.77;89.51
59391;BME280;53405;57.012;40.984;2023-04-01T23:29:21;99648.88;;;4.67;90.00
59391;BME280;53405;57.012;40.984;2023-04-01T23:32:01;99655.69;;;4.68;90.41
59391;BME280;53405;57.012;40.984;2023-04-01T23:34:32;99660.56;;;4.63;90.33
59391;BME280;53405;57.012;40.984;2023-04-01T23:37:19;99656.16;;;4.63;90.13
59391;BME280;53405;57.012;40.984;2023-04-01T23:39:57;99658.31;;;4.50;90.32
59391;BME280;53405;57.012;40.984;2023-04-01T23:42:28;99666.63;;;4.53;91.34
59391;BME280;53405;57.012;40.984;2023-04-01T23:45:04;99679.03;;;4.69;90.76
59391;BME280;53405;57.012;40.984;2023-04-01T23:47:38;99677.94;;;4.90;90.32
59391;BME280;53405;57.012;40.984;2023-04-01T23:50:11;99680.97;;;4.67;90.64
59391;BME280;53405;57.012;40.984;2023-04-01T23:52:47;99684.53;;;4.66;90.50
59391;BME280;53405;57.012;40.984;2023-04-01T23:55:23;99679.94;;;4.78;90.65
